Time;durP1;ratioP1;P1;durP2;ratioP2;P2;SDS_P1;SDS_P2;PMS_P1;PMS_P2;Temp;Humidity;BMP_temperature;BMP_pressure;BME280_temperature;BME280_humidity;BME280_pressure;Samples;Min_cycle;Max_cycle;Signal;HPM_P1;HPM_P2
2022/07/17 00:01:38;;;;;;;5.22;0.90;;;12.10;99.90;;;;;;4994855;28;20426;-84
2022/07/17 00:04:05;;;;;;;5.80;1.20;;;12.10;99.90;;;;;;4981712;28;20399;-84
2022/07/17 00:06:33;;;;;;;2.83;1.10;;;12.00;99.90;;;;;;5030448;28;20409;-84
2022/07/17 00:09:01;;;;;;;3.08;0.93;;;12.00;99.90;;;;;;5030514;28;20395;-84
2022/07/17 00:11:28;;;;;;;4.03;0.93;;;12.00;99.90;;;;;;5030510;28;20402;-84
2022/07/17 00:13:56;;;;;;;10.15;1.00;;;12.00;99.90;;;;;;5026611;28;20413;-85
2022/07/17 00:16:24;;;;;;;3.63;1.00;;;11.90;99.90;;;;;;5013906;28;20407;-83
2022/07/17 00:18:52;;;;;;;5.15;0.90;;;11.90;99.90;;;;;;5015044;28;20398;-84
2022/07/17 00:21:19;;;;;;;3.63;0.95;;;11.90;99.90;;;;;;5014841;28;20433;-84
2022/07/17 00:23:47;;;;;;;2.35;0.95;;;11.90;99.90;;;;;;5014984;28;20398;-84
2022/07/17 00:26:15;;;;;;;3.30;0.90;;;11.90;99.90;;;;;;4997264;28;20403;-83
2022/07/17 00:28:44;;;;;;;2.47;1.10;;;11.90;99.90;;;;;;4997822;28;20463;-83
2022/07/17 00:31:12;;;;;;;3.40;0.93;;;11.90;99.90;;;;;;5015053;28;20391;-82
2022/07/17 00:33:41;;;;;;;4.47;1.00;;;12.00;99.90;;;;;;5014865;28;20390;-82
2022/07/17 00:36:09;;;;;;;5.03;0.98;;;11.90;99.90;;;;;;4997628;28;20462;-82
2022/07/17 00:38:36;;;;;;;2.05;0.93;;;11.90;99.90;;;;;;4997571;28;20387;-84
2022/07/17 00:41:04;;;;;;;4.47;1.00;;;11.90;99.90;;;;;;5014999;28;20905;-84
2022/07/17 00:43:32;;;;;;;4.05;1.00;;;11.80;99.90;;;;;;5014781;28;20387;-83
2022/07/17 00:46:02;;;;;;;6.40;1.00;;;11.80;99.90;;;;;;5013444;28;20434;-84
2022/07/17 00:48:31;;;;;;;4.07;0.90;;;11.70;99.90;;;;;;5014697;28;20391;-84
2022/07/17 00:50:59;;;;;;;4.90;0.93;;;11.80;99.90;;;;;;5014832;28;20490;-84
2022/07/17 00:53:28;;;;;;;4.73;0.80;;;11.70;99.90;;;;;;4997230;28;20392;-84
2022/07/17 00:55:57;;;;;;;5.63;1.10;;;11.70;99.90;;;;;;5013059;28;20761;-84
2022/07/17 00:58:25;;;;;;;2.80;0.95;;;11.60;99.90;;;;;;5029639;28;20474;-84
2022/07/17 01:00:54;;;;;;;4.15;1.02;;;11.60;99.90;;;;;;5013836;28;20403;-84
2022/07/17 01:03:25;;;;;;;3.37;0.80;;;11.60;99.90;;;;;;4996951;28;20399;-83
2022/07/17 01:05:53;;;;;;;4.80;0.90;;;11.60;99.90;;;;;;4996951;28;20411;-84
2022/07/17 01:08:21;;;;;;;4.00;0.80;;;11.60;99.90;;;;;;4980669;28;20418;-84
2022/07/17 01:10:48;;;;;;;4.30;1.10;;;11.60;99.90;;;;;;4996638;28;20395;-84
2022/07/17 01:13:16;;;;;;;4.30;0.90;;;11.60;99.90;;;;;;4997077;28;20391;-84
2022/07/17 01:15:44;;;;;;;2.67;0.80;;;11.50;99.90;;;;;;4996505;28;20885;-82
2022/07/17 01:18:13;;;;;;;3.13;0.90;;;11.50;99.90;;;;;;4996885;28;20470;-83
2022/07/17 01:20:47;;;;;;;4.07;0.90;;;11.50;99.90;;;;;;5010985;28;20427;-83
2022/07/17 01:23:17;;;;;;;3.55;1.17;;;11.50;99.90;;;;;;4994801;28;20385;-81
2022/07/17 01:25:45;;;;;;;2.63;0.80;;;11.40;99.90;;;;;;4993218;28;20452;-83
2022/07/17 01:28:13;;;;;;;4.97;0.90;;;11.40;99.90;;;;;;4993279;28;20401;-83
2022/07/17 01:30:49;;;;;;;3.25;0.90;;;11.40;99.90;;;;;;4993222;28;20802;-83
2022/07/17 01:33:18;;;;;;;3.58;1.00;;;11.40;99.90;;;;;;5009126;28;20421;-83
2022/07/17 01:35:46;;;;;;;3.30;0.90;;;11.40;99.90;;;;;;4994174;28;20400;-84
2022/07/17 01:38:14;;;;;;;5.20;0.80;;;11.30;99.90;;;;;;4992923;28;20830;-84
2022/07/17 01:40:41;;;;;;;3.35;0.90;;;11.30;99.90;;;;;;4994027;28;20389;-84
2022/07/17 01:43:09;;;;;;;3.10;0.90;;;11.30;99.90;;;;;;4994091;28;20783;-83
2022/07/17 01:45:37;;;;;;;3.90;0.90;;;11.20;99.90;;;;;;5008811;28;20409;-83
2022/07/17 01:48:05;;;;;;;3.85;0.90;;;11.20;99.90;;;;;;4992753;28;20443;-83
2022/07/17 01:50:33;;;;;;;4.20;0.80;;;11.20;99.90;;;;;;4992816;28;20392;-83
2022/07/17 01:53:01;;;;;;;2.60;0.90;;;11.20;99.90;;;;;;4993847;28;20420;-83
2022/07/17 01:55:28;;;;;;;5.65;1.30;;;11.20;99.90;;;;;;5009158;28;20474;-83
2022/07/17 01:57:56;;;;;;;3.45;1.00;;;11.20;99.90;;;;;;4992473;28;20415;-82
2022/07/17 02:00:25;;;;;;;4.27;0.90;;;11.20;99.90;;;;;;4992540;28;20821;-81
2022/07/17 02:02:53;;;;;;;3.88;0.90;;;11.10;99.90;;;;;;4992443;28;20397;-81
2022/07/17 02:05:20;;;;;;;5.60;1.10;;;11.10;99.90;;;;;;5019803;28;20404;-81
2022/07/17 02:07:48;;;;;;;4.97;1.00;;;11.10;99.90;;;;;;4992587;28;20393;-83
2022/07/17 02:10:15;;;;;;;5.30;0.90;;;11.10;99.90;;;;;;4992361;28;20476;-82
2022/07/17 02:12:44;;;;;;;5.40;1.08;;;11.00;99.90;;;;;;4993658;28;20396;-82
2022/07/17 02:15:13;;;;;;;2.33;0.90;;;11.00;99.90;;;;;;4993387;28;20512;-83
2022/07/17 02:17:42;;;;;;;3.70;0.70;;;11.00;99.90;;;;;;4993430;28;20388;-83
2022/07/17 02:20:12;;;;;;;4.67;1.10;;;10.90;99.90;;;;;;4993339;28;20756;-81
2022/07/17 02:22:40;;;;;;;5.15;0.93;;;10.90;99.90;;;;;;4991872;28;20756;-83
2022/07/17 02:25:09;;;;;;;4.35;1.00;;;10.90;99.90;;;;;;4991141;28;20404;-81
2022/07/17 02:27:39;;;;;;;3.83;1.00;;;10.90;99.90;;;;;;4975930;28;20968;-83
2022/07/17 02:30:10;;;;;;;3.78;0.98;;;10.90;99.90;;;;;;4993308;28;20396;-82
2022/07/17 02:32:38;;;;;;;4.50;1.00;;;10.90;99.90;;;;;;5008157;28;20393;-82
2022/07/17 02:35:08;;;;;;;3.80;0.90;;;10.90;99.90;;;;;;4992068;28;20392;-83
2022/07/17 02:37:37;;;;;;;4.43;0.85;;;10.80;99.90;;;;;;4976051;28;20393;-82
2022/07/17 02:40:05;;;;;;;2.13;0.93;;;10.80;99.90;;;;;;4975490;28;20393;-83
2022/07/17 02:42:33;;;;;;;7.00;1.00;;;10.80;99.90;;;;;;4992892;28;20480;-83
2022/07/17 02:45:01;;;;;;;4.00;0.90;;;10.80;99.90;;;;;;4991645;28;20396;-82
2022/07/17 02:47:33;;;;;;;3.40;1.00;;;10.80;99.90;;;;;;5008080;28;20483;-83
2022/07/17 02:50:04;;;;;;;3.92;0.95;;;10.80;99.90;;;;;;4993034;28;20751;-83
2022/07/17 02:52:33;;;;;;;5.10;1.17;;;10.80;99.90;;;;;;4975831;28;20395;-83
2022/07/17 02:55:01;;;;;;;3.28;1.13;;;10.80;99.90;;;;;;4992656;28;20419;-83
2022/07/17 02:57:29;;;;;;;4.90;1.02;;;10.90;99.90;;;;;;4975518;28;20396;-83
2022/07/17 02:59:56;;;;;;;3.20;1.10;;;10.80;99.90;;;;;;4991576;28;20408;-83
2022/07/17 03:02:24;;;;;;;1.17;1.00;;;10.90;99.90;;;;;;5007703;28;20401;-83
2022/07/17 03:04:52;;;;;;;4.73;1.00;;;10.80;99.90;;;;;;5007814;28;20388;-84
2022/07/17 03:07:19;;;;;;;4.05;1.08;;;10.80;99.90;;;;;;4974973;28;20412;-83
2022/07/17 03:09:47;;;;;;;2.10;0.90;;;10.80;99.90;;;;;;4992505;28;20392;-83
2022/07/17 03:12:15;;;;;;;2.80;0.90;;;10.80;99.90;;;;;;5007594;28;20875;-83
2022/07/17 03:14:43;;;;;;;3.30;0.95;;;10.80;99.90;;;;;;5007266;28;20394;-84
2022/07/17 03:17:10;;;;;;;2.13;0.90;;;10.80;99.90;;;;;;4992420;28;20399;-83
2022/07/17 03:19:38;;;;;;;6.25;1.00;;;10.90;99.90;;;;;;5007565;28;20400;-83
2022/07/17 03:22:06;;;;;;;4.03;0.90;;;10.90;99.90;;;;;;5002509;28;20434;-84
2022/07/17 03:24:34;;;;;;;5.90;0.90;;;10.90;99.90;;;;;;4962859;28;20403;-83
2022/07/17 03:27:01;;;;;;;5.90;1.15;;;10.90;99.90;;;;;;4952273;29;20771;-83
2022/07/17 03:29:29;;;;;;;1.77;0.98;;;10.90;99.90;;;;;;4968349;28;20496;-84
2022/07/17 03:31:57;;;;;;;2.70;0.90;;;10.90;99.90;;;;;;4952242;29;20752;-83
2022/07/17 03:34:25;;;;;;;3.55;0.90;;;10.90;99.90;;;;;;4984465;28;20431;-83
2022/07/17 03:36:53;;;;;;;4.77;1.20;;;10.90;99.90;;;;;;4967350;28;20496;-83
2022/07/17 03:39:20;;;;;;;4.47;0.80;;;11.00;99.90;;;;;;4953398;29;20471;-83
2022/07/17 03:41:48;;;;;;;7.00;0.82;;;11.00;99.90;;;;;;4968328;28;20459;-83
2022/07/17 03:44:15;;;;;;;4.07;0.93;;;11.00;99.90;;;;;;4953430;29;20460;-83
2022/07/17 03:46:43;;;;;;;2.67;0.80;;;11.10;99.90;;;;;;4952202;29;20456;-83
2022/07/17 03:49:10;;;;;;;3.30;0.85;;;11.10;99.90;;;;;;4953395;28;20402;-83
2022/07/17 03:51:38;;;;;;;2.87;0.90;;;11.10;99.90;;;;;;4953306;29;20403;-83
2022/07/17 03:54:06;;;;;;;1.30;0.73;;;11.10;99.90;;;;;;4953369;29;20396;-83
2022/07/17 03:56:34;;;;;;;3.55;1.08;;;11.20;99.90;;;;;;4953333;28;20796;-83
2022/07/17 03:59:01;;;;;;;2.28;0.90;;;11.20;99.90;;;;;;4984064;28;20392;-83
2022/07/17 04:01:29;;;;;;;4.10;0.83;;;11.20;99.90;;;;;;4953159;29;20851;-83
2022/07/17 04:03:57;;;;;;;2.10;0.70;;;11.20;99.90;;;;;;4953238;28;20395;-83
2022/07/17 04:06:28;;;;;;;2.33;0.77;;;11.20;99.90;;;;;;4953117;29;20439;-84
2022/07/17 04:08:56;;;;;;;3.92;0.85;;;11.20;99.90;;;;;;4951949;29;20410;-83
2022/07/17 04:11:24;;;;;;;2.60;0.70;;;11.20;99.90;;;;;;4967974;28;20411;-83
2022/07/17 04:13:52;;;;;;;1.63;0.80;;;11.30;99.90;;;;;;4953133;29;20420;-83
2022/07/17 04:16:19;;;;;;;1.20;0.70;;;11.30;99.90;;;;;;4955608;28;20440;-83
2022/07/17 04:18:47;;;;;;;1.77;0.63;;;11.30;99.90;;;;;;5003386;28;20402;-83
2022/07/17 04:21:15;;;;;;;1.10;0.70;;;11.40;99.90;;;;;;4990725;28;20459;-83
2022/07/17 04:23:42;;;;;;;1.77;0.77;;;11.30;99.90;;;;;;5007085;28;20967;-83
2022/07/17 04:26:10;;;;;;;2.97;0.90;;;11.40;99.90;;;;;;5006754;28;20913;-83
2022/07/17 04:28:39;;;;;;;2.63;1.00;;;11.40;99.90;;;;;;5006957;28;20894;-82
2022/07/17 04:31:07;;;;;;;5.47;0.88;;;11.50;99.90;;;;;;5006743;28;20389;-83
2022/07/17 04:33:36;;;;;;;1.60;0.80;;;11.50;99.90;;;;;;5006801;28;20397;-83
2022/07/17 04:36:04;;;;;;;3.30;0.70;;;11.50;99.90;;;;;;5006729;28;20871;-83
2022/07/17 04:38:32;;;;;;;2.25;0.70;;;11.50;99.90;;;;;;4991673;28;20399;-83
2022/07/17 04:40:59;;;;;;;1.75;0.70;;;11.60;99.90;;;;;;5006552;28;20467;-83
2022/07/17 04:43:27;;;;;;;2.30;0.70;;;11.60;99.90;;;;;;5006637;28;20455;-83
2022/07/17 04:45:54;;;;;;;2.00;0.70;;;11.60;99.90;;;;;;5006344;28;20818;-83
2022/07/17 04:48:22;;;;;;;1.23;0.70;;;11.70;99.90;;;;;;4993599;28;20443;-83
2022/07/17 04:50:49;;;;;;;2.42;0.80;;;11.70;99.90;;;;;;5010167;28;20397;-83
2022/07/17 04:53:17;;;;;;;1.70;0.60;;;11.80;99.90;;;;;;4995248;28;20393;-83
2022/07/17 04:55:50;;;;;;;1.45;0.60;;;11.80;99.90;;;;;;5009193;28;20925;-83
2022/07/17 04:58:18;;;;;;;1.20;0.70;;;11.90;99.90;;;;;;5010090;28;20879;-84
2022/07/17 05:00:46;;;;;;;1.90;0.75;;;11.90;99.90;;;;;;5009860;28;20395;-83
2022/07/17 05:03:14;;;;;;;0.88;0.63;;;12.00;99.90;;;;;;4994919;28;20435;-84
2022/07/17 05:05:42;;;;;;;1.05;0.60;;;12.10;99.90;;;;;;4992003;28;20435;-84
2022/07/17 05:08:09;;;;;;;1.83;0.70;;;12.10;99.90;;;;;;4992821;28;20400;-83
2022/07/17 05:10:37;;;;;;;2.05;0.60;;;12.30;99.90;;;;;;4989500;28;20408;-83
2022/07/17 05:13:05;;;;;;;1.40;0.70;;;12.30;99.90;;;;;;4987698;28;20420;-83
2022/07/17 05:15:33;;;;;;;0.95;0.50;;;12.50;99.90;;;;;;4993577;28;20393;-83
2022/07/17 05:18:07;;;;;;;1.13;0.50;;;12.40;99.90;;;;;;4993690;28;20397;-83
2022/07/17 05:20:35;;;;;;;2.20;0.60;;;12.40;99.90;;;;;;4993649;28;20472;-83
2022/07/17 05:23:03;;;;;;;1.92;1.00;;;12.50;99.90;;;;;;4993073;28;20409;-83
2022/07/17 05:25:31;;;;;;;1.35;0.60;;;12.50;99.90;;;;;;4991176;28;20405;-83
2022/07/17 05:28:01;;;;;;;0.85;0.60;;;12.50;99.90;;;;;;4993000;28;20413;-83
2022/07/17 05:30:30;;;;;;;1.15;0.60;;;12.50;99.90;;;;;;4994387;28;20439;-83
2022/07/17 05:32:58;;;;;;;1.10;0.50;;;12.50;99.90;;;;;;4994275;28;20396;-83
2022/07/17 05:35:25;;;;;;;1.60;0.60;;;12.60;99.90;;;;;;4988054;28;20394;-83
2022/07/17 05:37:53;;;;;;;1.15;0.60;;;12.80;99.90;;;;;;5009288;28;20393;-82
2022/07/17 05:40:20;;;;;;;1.07;0.60;;;12.80;99.90;;;;;;4994234;28;20396;-82
2022/07/17 05:42:48;;;;;;;2.00;0.60;;;12.80;99.90;;;;;;4994129;28;20401;-83
2022/07/17 05:45:16;;;;;;;1.83;0.60;;;12.90;99.90;;;;;;4993168;28;20429;-82
2022/07/17 05:47:43;;;;;;;1.50;0.50;;;12.90;99.90;;;;;;4992691;28;20827;-80
2022/07/17 05:50:11;;;;;;;1.50;0.50;;;12.90;99.90;;;;;;4994072;28;20813;-82
2022/07/17 05:52:38;;;;;;;1.30;0.50;;;13.00;99.90;;;;;;4991953;28;20493;-83
2022/07/17 05:55:07;;;;;;;0.90;0.60;;;13.00;99.90;;;;;;4992597;28;20393;-84
2022/07/17 05:57:34;;;;;;;1.42;0.50;;;13.00;99.90;;;;;;5008775;28;20930;-83
2022/07/17 06:00:04;;;;;;;1.13;0.60;;;13.10;99.90;;;;;;5023961;28;20404;-83
2022/07/17 06:02:38;;;;;;;1.30;0.75;;;13.10;99.90;;;;;;4984815;28;20391;-83
2022/07/17 06:05:06;;;;;;;1.30;0.50;;;13.10;99.90;;;;;;5005138;28;20896;-83
2022/07/17 06:07:33;;;;;;;2.42;0.80;;;13.10;99.90;;;;;;4987693;28;20417;-83
2022/07/17 06:10:01;;;;;;;1.50;0.50;;;13.10;99.90;;;;;;5005997;28;20397;-83
2022/07/17 06:12:29;;;;;;;1.70;0.50;;;13.30;99.90;;;;;;4992415;28;20397;-83
2022/07/17 06:14:56;;;;;;;1.90;0.80;;;13.30;99.90;;;;;;4990020;28;20423;-83
2022/07/17 06:17:25;;;;;;;2.50;0.60;;;13.50;99.90;;;;;;5004011;28;20428;-83
2022/07/17 06:19:55;;;;;;;1.55;0.68;;;13.50;99.90;;;;;;4992356;28;20403;-85
2022/07/17 06:22:23;;;;;;;3.10;0.70;;;13.40;99.90;;;;;;4988547;28;20398;-83
2022/07/17 06:24:50;;;;;;;1.50;0.70;;;13.40;99.90;;;;;;5004988;28;20410;-83
2022/07/17 06:27:18;;;;;;;1.25;0.55;;;13.40;99.90;;;;;;4992259;28;20978;-83
2022/07/17 06:29:46;;;;;;;2.17;0.50;;;13.60;99.90;;;;;;4992075;28;20475;-83
2022/07/17 06:32:23;;;;;;;1.13;0.50;;;13.60;99.90;;;;;;4992017;28;20888;-83
2022/07/17 06:34:51;;;;;;;0.98;0.50;;;13.50;99.90;;;;;;4991523;28;20783;-83
2022/07/17 06:37:19;;;;;;;1.92;0.40;;;13.40;99.90;;;;;;4993138;28;20788;-83
2022/07/17 06:39:47;;;;;;;1.05;0.50;;;13.50;99.90;;;;;;4991528;28;20389;-82
2022/07/17 06:42:15;;;;;;;2.03;0.75;;;13.70;99.90;;;;;;4991685;28;20397;-83
2022/07/17 06:44:42;;;;;;;2.13;0.60;;;13.60;99.90;;;;;;4989476;28;20802;-83
2022/07/17 06:47:10;;;;;;;1.40;0.50;;;13.70;99.90;;;;;;4985642;28;20423;-82
2022/07/17 06:49:38;;;;;;;4.90;1.30;;;13.90;99.90;;;;;;4980766;28;20410;-82
2022/07/17 06:52:06;;;;;;;1.40;0.80;;;13.90;99.90;;;;;;4980550;28;20778;-83
2022/07/17 06:54:33;;;;;;;1.80;0.80;;;13.90;99.90;;;;;;4973293;28;20481;-82
2022/07/17 06:57:01;;;;;;;1.10;0.70;;;13.90;99.90;;;;;;4973187;28;20395;-82
2022/07/17 06:59:29;;;;;;;1.00;0.60;;;14.00;99.90;;;;;;4976130;28;20661;-81
2022/07/17 07:01:56;;;;;;;1.73;0.70;;;14.10;99.90;;;;;;4983768;28;20484;-83
2022/07/17 07:04:24;;;;;;;1.17;0.50;;;14.10;99.90;;;;;;4973190;28;20900;-83
2022/07/17 07:06:52;;;;;;;0.83;0.60;;;14.00;99.90;;;;;;5000599;28;20826;-83
2022/07/17 07:09:19;;;;;;;0.93;0.50;;;13.90;99.90;;;;;;4989731;28;20525;-83
2022/07/17 07:11:47;;;;;;;1.35;0.52;;;13.90;99.90;;;;;;4996238;28;20765;-83
2022/07/17 07:14:14;;;;;;;0.50;0.40;;;14.00;99.90;;;;;;5004154;28;20390;-83
2022/07/17 07:16:42;;;;;;;1.10;0.30;;;14.10;99.90;;;;;;4972941;28;20394;-83
2022/07/17 07:19:10;;;;;;;1.80;0.40;;;14.10;99.90;;;;;;4973085;28;20395;-81
2022/07/17 07:21:38;;;;;;;0.60;0.40;;;14.10;99.90;;;;;;4979208;28;20405;-82
2022/07/17 07:24:07;;;;;;;1.23;0.33;;;14.10;99.90;;;;;;4992422;28;20423;-82
2022/07/17 07:26:34;;;;;;;0.30;0.30;;;14.10;99.90;;;;;;5011369;28;20391;-83
2022/07/17 07:29:02;;;;;;;1.63;0.60;;;14.20;99.90;;;;;;5011765;28;20393;-83
2022/07/17 07:31:30;;;;;;;1.90;0.50;;;14.40;99.90;;;;;;5010215;28;20423;-82
2022/07/17 07:33:58;;;;;;;0.60;0.40;;;14.60;99.90;;;;;;4994684;28;20442;-83
2022/07/17 07:36:27;;;;;;;1.30;0.40;;;14.70;99.90;;;;;;5011893;28;20386;-82
2022/07/17 07:38:56;;;;;;;0.80;0.40;;;14.80;99.90;;;;;;5011756;28;20494;-83
2022/07/17 07:41:24;;;;;;;0.50;0.30;;;14.80;99.90;;;;;;5011664;28;20441;-81
2022/07/17 07:43:53;;;;;;;1.87;0.30;;;14.80;99.90;;;;;;5011704;28;20391;-81
2022/07/17 07:46:21;;;;;;;0.57;0.40;;;14.80;99.90;;;;;;5011618;28;20394;-82
2022/07/17 07:48:48;;;;;;;0.77;0.38;;;14.70;99.90;;;;;;5011567;28;20407;-83
2022/07/17 07:51:16;;;;;;;0.60;0.45;;;14.80;99.90;;;;;;5009454;28;20397;-83
2022/07/17 07:54:04;;;;;;;2.10;0.30;;;14.70;99.90;;;;;;5013026;28;20389;-82
2022/07/17 07:56:32;;;;;;;0.80;0.30;;;14.80;99.90;;;;;;4996313;28;20821;-82
2022/07/17 07:58:59;;;;;;;1.00;0.30;;;14.90;99.90;;;;;;5011433;28;20388;-82
2022/07/17 08:01:27;;;;;;;0.55;0.30;;;15.00;99.90;;;;;;4994125;28;20425;-84
2022/07/17 08:03:55;;;;;;;0.90;0.30;;;15.10;99.90;;;;;;5011374;28;20387;-83
2022/07/17 08:06:23;;;;;;;1.08;0.30;;;15.10;99.90;;;;;;4993795;28;20430;-83
2022/07/17 08:08:51;;;;;;;0.88;0.40;;;15.30;99.90;;;;;;5010099;28;20414;-83
2022/07/17 08:11:18;;;;;;;0.82;0.40;;;15.30;99.90;;;;;;5011610;28;20795;-81
2022/07/17 08:13:47;;;;;;;0.90;0.50;;;15.10;99.90;;;;;;5011217;28;20735;-82
2022/07/17 08:16:15;;;;;;;0.80;0.30;;;15.00;99.90;;;;;;5011362;28;20486;-83
2022/07/17 08:18:43;;;;;;;1.58;0.70;;;14.90;99.90;;;;;;5011306;28;20395;-84
2022/07/17 08:21:11;;;;;;;1.27;0.32;;;14.80;99.90;;;;;;5011204;28;20408;-83
2022/07/17 08:23:39;;;;;;;3.67;0.60;;;14.80;99.90;;;;;;5011777;28;20411;-83
2022/07/17 08:26:06;;;;;;;0.65;0.30;;;14.70;99.90;;;;;;5011957;28;20840;-82
2022/07/17 08:28:54;;;;;;;1.20;0.40;;;14.70;99.90;;;;;;5001887;28;20407;-83
2022/07/17 08:31:22;;;;;;;1.20;0.50;;;14.70;99.90;;;;;;4995492;28;20389;-83
2022/07/17 08:33:49;;;;;;;1.60;0.40;;;14.80;99.90;;;;;;4994385;28;20393;-83
2022/07/17 08:36:17;;;;;;;0.30;0.30;;;15.00;99.90;;;;;;5009316;28;20403;-83
2022/07/17 08:38:44;;;;;;;0.57;0.30;;;15.10;99.90;;;;;;4992772;28;20756;-83
2022/07/17 08:41:16;;;;;;;0.45;0.30;;;15.20;99.90;;;;;;4993926;28;20393;-84
2022/07/17 08:43:44;;;;;;;1.45;0.60;;;15.10;99.90;;;;;;4994119;28;20392;-81
2022/07/17 08:46:12;;;;;;;0.75;0.32;;;15.10;99.90;;;;;;4992923;28;20397;-81
2022/07/17 08:48:44;;;;;;;0.95;0.38;;;15.00;99.90;;;;;;4994814;28;20407;-83
2022/07/17 08:51:12;;;;;;;0.53;0.33;;;15.00;99.90;;;;;;4995125;28;20400;-81
2022/07/17 08:53:42;;;;;;;0.45;0.30;;;14.90;99.90;;;;;;5010133;28;20424;-83
2022/07/17 08:56:09;;;;;;;0.40;0.32;;;14.90;99.90;;;;;;4993898;28;20444;-80
2022/07/17 08:58:37;;;;;;;1.40;0.30;;;14.80;99.90;;;;;;4993662;28;20389;-83
2022/07/17 09:01:05;;;;;;;1.07;0.30;;;14.80;99.90;;;;;;5026069;28;20517;-84
2022/07/17 09:03:33;;;;;;;1.10;0.80;;;14.70;99.90;;;;;;5014637;28;20391;-82
2022/07/17 09:06:22;;;;;;;1.20;0.40;;;14.90;99.90;;;;;;5010453;28;20459;-82
2022/07/17 09:09:01;;;;;;;0.82;0.30;;;15.20;99.90;;;;;;5008334;28;20406;-83
2022/07/17 09:11:29;;;;;;;0.80;0.30;;;15.40;99.90;;;;;;4998841;28;20480;-86
2022/07/17 09:13:57;;;;;;;1.15;0.40;;;15.50;99.90;;;;;;4995617;28;20407;-82
2022/07/17 09:16:25;;;;;;;0.65;0.30;;;15.60;99.90;;;;;;5024451;28;20614;-83
2022/07/17 09:18:53;;;;;;;0.88;0.30;;;15.80;99.90;;;;;;5003038;28;20391;-85
2022/07/17 09:21:24;;;;;;;0.50;0.23;;;16.10;99.90;;;;;;5013925;28;20406;-84
2022/07/17 09:24:06;;;;;;;1.20;0.30;;;16.10;99.90;;;;;;5014047;28;20474;-85
2022/07/17 09:26:35;;;;;;;1.80;0.30;;;16.00;99.90;;;;;;5014062;28;20757;-84
2022/07/17 09:29:03;;;;;;;1.77;0.30;;;15.90;99.90;;;;;;5012440;28;20739;-84
2022/07/17 09:31:33;;;;;;;0.70;0.30;;;15.60;99.90;;;;;;5012942;28;20399;-83
2022/07/17 09:34:01;;;;;;;0.75;0.30;;;15.50;99.90;;;;;;5012593;28;20387;-83
2022/07/17 09:36:29;;;;;;;0.77;0.22;;;15.40;99.90;;;;;;5029274;28;20396;-83
2022/07/17 09:38:58;;;;;;;0.73;0.30;;;15.30;99.90;;;;;;5013755;28;20391;-84
2022/07/17 09:41:29;;;;;;;0.50;0.20;;;15.30;99.90;;;;;;5013852;28;20391;-84
2022/07/17 09:44:02;;;;;;;0.38;0.20;;;15.20;99.90;;;;;;5007481;28;20389;-83
2022/07/17 09:46:33;;;;;;;1.00;0.30;;;15.20;99.90;;;;;;5009182;28;20409;-83
2022/07/17 09:49:09;;;;;;;0.50;0.20;;;15.20;99.90;;;;;;4993984;28;20913;-83
2022/07/17 09:51:39;;;;;;;1.08;0.40;;;15.30;99.90;;;;;;4976822;28;20395;-82
2022/07/17 09:54:12;;;;;;;0.50;0.30;;;15.30;99.90;;;;;;4976820;28;20435;-83
2022/07/17 09:56:40;;;;;;;0.90;0.30;;;15.30;99.90;;;;;;4993947;28;20388;-84
2022/07/17 09:59:12;;;;;;;0.65;0.30;;;15.40;99.90;;;;;;4994118;28;20389;-83
2022/07/17 10:01:42;;;;;;;0.20;0.20;;;15.40;99.90;;;;;;5009613;28;20459;-80
2022/07/17 10:04:12;;;;;;;1.67;0.30;;;15.50;99.90;;;;;;5004572;28;20407;-84
2022/07/17 10:06:40;;;;;;;0.30;0.30;;;15.60;99.90;;;;;;5013379;28;20392;-85
2022/07/17 10:09:07;;;;;;;0.30;0.25;;;15.80;99.90;;;;;;5013381;28;20905;-84
2022/07/17 10:11:40;;;;;;;0.30;0.30;;;16.10;99.90;;;;;;5013317;28;20384;-84
2022/07/17 10:14:18;;;;;;;0.65;0.30;;;16.20;99.90;;;;;;5013474;28;20413;-83
2022/07/17 10:16:46;;;;;;;1.25;0.30;;;16.30;99.90;;;;;;5013297;28;20392;-84
2022/07/17 10:19:19;;;;;;;1.90;0.30;;;16.60;99.90;;;;;;5013432;28;20806;-83
2022/07/17 10:21:55;;;;;;;0.63;0.30;;;16.70;99.90;;;;;;5008340;28;20432;-84
2022/07/17 10:24:24;;;;;;;0.73;0.30;;;16.50;99.90;;;;;;5025133;28;20408;-84
2022/07/17 10:26:52;;;;;;;2.40;0.60;;;16.40;99.90;;;;;;5024978;28;20405;-84
2022/07/17 10:29:38;;;;;;;0.55;0.38;;;16.00;99.90;;;;;;5008449;28;20495;-85
2022/07/17 10:32:16;;;;;;;1.10;0.40;;;15.70;99.90;;;;;;4992458;28;20396;-84
2022/07/17 10:34:57;;;;;;;1.63;0.50;;;15.70;99.90;;;;;;5008497;28;20659;-82
2022/07/17 10:37:46;;;;;;;1.90;0.40;;;15.70;99.90;;;;;;4993473;28;20443;-83
2022/07/17 10:40:18;;;;;;;0.75;0.43;;;15.70;99.90;;;;;;4987715;28;20410;-84
2022/07/17 10:43:07;;;;;;;1.13;0.45;;;15.60;99.90;;;;;;4986533;28;20404;-84
2022/07/17 10:45:43;;;;;;;1.20;0.40;;;15.80;99.90;;;;;;5004494;28;20393;-85
2022/07/17 10:48:15;;;;;;;1.13;0.40;;;15.90;99.90;;;;;;5005149;28;20417;-84
2022/07/17 10:50:52;;;;;;;0.70;0.30;;;16.10;99.90;;;;;;4988372;28;20391;-84
2022/07/17 10:53:24;;;;;;;0.88;0.40;;;16.20;99.90;;;;;;4973548;28;20449;-85
2022/07/17 10:55:53;;;;;;;1.08;0.40;;;16.30;99.90;;;;;;4973438;28;20394;-84
2022/07/17 10:58:34;;;;;;;1.13;0.30;;;16.50;99.90;;;;;;4973495;28;20446;-84
2022/07/17 11:01:10;;;;;;;1.10;0.40;;;16.50;99.90;;;;;;4989006;28;20479;-84
2022/07/17 11:03:55;;;;;;;2.67;0.30;;;16.50;99.90;;;;;;4991547;28;20436;-85
2022/07/17 11:06:31;;;;;;;0.68;0.30;;;16.60;99.90;;;;;;4992693;28;20424;-85
2022/07/17 11:09:10;;;;;;;0.73;0.38;;;16.60;99.90;;;;;;4991388;28;20412;-85
2022/07/17 11:11:43;;;;;;;2.30;0.50;;;16.50;99.90;;;;;;4991594;28;20388;-85
2022/07/17 11:14:14;;;;;;;4.13;1.00;;;16.30;99.90;;;;;;4991618;28;20420;-84
2022/07/17 11:17:00;;;;;;;2.17;0.60;;;16.20;99.90;;;;;;4975559;28;20397;-85
2022/07/17 11:19:31;;;;;;;2.20;0.40;;;16.30;99.90;;;;;;4991380;28;20401;-84
2022/07/17 11:22:03;;;;;;;1.30;0.50;;;16.40;99.90;;;;;;5001555;28;20399;-83
2022/07/17 11:24:45;;;;;;;0.90;0.35;;;16.50;99.90;;;;;;5012138;28;20515;-82
2022/07/17 11:27:18;;;;;;;0.60;0.30;;;16.60;99.90;;;;;;5012052;28;20391;-85
2022/07/17 11:29:48;;;;;;;1.10;0.30;;;16.50;99.90;;;;;;5011852;28;20402;-82
2022/07/17 11:32:16;;;;;;;0.88;0.40;;;16.50;99.90;;;;;;4992166;28;20478;-83
2022/07/17 11:34:44;;;;;;;0.35;0.30;;;16.40;99.90;;;;;;5020621;28;20430;-83
2022/07/17 11:37:11;;;;;;;1.13;0.40;;;16.40;99.90;;;;;;5008112;28;20832;-82
2022/07/17 11:39:47;;;;;;;1.20;0.30;;;16.60;99.90;;;;;;5018283;28;20498;-84
2022/07/17 11:42:20;;;;;;;1.13;0.50;;;16.70;99.90;;;;;;5005634;28;20401;-80
2022/07/17 11:44:50;;;;;;;0.53;0.33;;;16.90;99.90;;;;;;5006299;28;20455;-84
2022/07/17 11:47:24;;;;;;;0.52;0.40;;;17.10;99.90;;;;;;5010848;28;20802;-84
2022/07/17 11:49:52;;;;;;;0.80;0.30;;;17.20;99.90;;;;;;5009951;28;20520;-84
2022/07/17 11:52:21;;;;;;;1.25;0.38;;;17.30;99.90;;;;;;5009023;28;20395;-84
2022/07/17 11:54:55;;;;;;;1.00;0.32;;;17.20;99.90;;;;;;4994083;28;20394;-83
2022/07/17 11:57:26;;;;;;;4.10;0.40;;;17.10;99.90;;;;;;5008570;28;20402;-85
2022/07/17 12:00:04;;;;;;;0.30;0.30;;;17.30;99.90;;;;;;5002304;28;20395;-83
2022/07/17 12:02:32;;;;;;;0.57;0.30;;;17.40;99.90;;;;;;4996401;28;20424;-84
2022/07/17 12:05:00;;;;;;;1.13;0.30;;;17.40;99.90;;;;;;4978703;28;20397;-85
2022/07/17 12:07:45;;;;;;;0.30;0.30;;;17.20;99.90;;;;;;5011261;28;20392;-84
2022/07/17 12:10:21;;;;;;;0.85;0.30;;;17.00;99.90;;;;;;4994458;28;20392;-85
2022/07/17 12:13:00;;;;;;;1.10;0.20;;;17.00;99.90;;;;;;4996124;28;20416;-84
2022/07/17 12:15:43;;;;;;;0.30;0.20;;;16.70;99.90;;;;;;5011105;28;20385;-84
2022/07/17 12:18:25;;;;;;;1.48;0.30;;;16.70;99.90;;;;;;4995937;28;20462;-85
2022/07/17 12:20:55;;;;;;;1.15;0.28;;;16.60;99.90;;;;;;4995795;28;20396;-84
2022/07/17 12:23:31;;;;;;;0.50;0.20;;;16.70;99.90;;;;;;4995878;28;20401;-85
2022/07/17 12:26:15;;;;;;;1.45;0.30;;;16.60;99.90;;;;;;4998817;28;20939;-83
2022/07/17 12:28:46;;;;;;;3.80;1.38;;;16.50;99.90;;;;;;5006891;28;20481;-84
2022/07/17 12:31:14;;;;;;;1.38;0.60;;;16.30;99.90;;;;;;5012341;28;20442;-83
2022/07/17 12:33:43;;;;;;;1.40;0.30;;;16.20;99.90;;;;;;5028893;28;20411;-87
2022/07/17 12:36:11;;;;;;;0.73;0.30;;;16.20;99.90;;;;;;4997903;28;20399;-85
2022/07/17 12:38:39;;;;;;;2.28;0.28;;;16.20;99.90;;;;;;5015080;28;20386;-84
2022/07/17 12:41:06;;;;;;;1.00;0.20;;;16.20;99.90;;;;;;5013840;28;20403;-84
2022/07/17 12:43:35;;;;;;;0.80;0.30;;;16.10;99.90;;;;;;5014978;28;20390;-84
2022/07/17 12:46:02;;;;;;;0.25;0.20;;;16.10;99.90;;;;;;5011574;28;20436;-83
2022/07/17 12:48:42;;;;;;;1.23;0.20;;;16.30;99.90;;;;;;5003606;28;20893;-85
2022/07/17 12:51:14;;;;;;;0.32;0.20;;;16.60;99.90;;;;;;5007087;28;20406;-85
2022/07/17 12:53:43;;;;;;;0.70;0.30;;;16.60;99.90;;;;;;4995433;28;20389;-84
2022/07/17 12:56:11;;;;;;;1.58;0.30;;;16.70;99.90;;;;;;4995210;28;20417;-85
2022/07/17 12:58:39;;;;;;;0.50;0.30;;;16.80;99.90;;;;;;4995187;28;20519;-83
2022/07/17 13:01:07;;;;;;;0.40;0.30;;;16.90;99.90;;;;;;4977618;28;20500;-83